createdAt,value
2018-09-13T00:02:19.947Z,13.49
2018-09-13T00:04:48.880Z,13.45
2018-09-13T00:07:17.717Z,13.46
2018-09-13T00:09:46.745Z,13.46
2018-09-13T00:12:16.656Z,13.47
2018-09-13T00:14:53.163Z,13.46
2018-09-13T00:17:22.208Z,13.42
2018-09-13T00:19:51.263Z,13.42
2018-09-13T00:22:20.222Z,13.42
2018-09-13T00:24:49.257Z,13.42
2018-09-13T00:27:18.280Z,13.40
2018-09-13T00:29:47.136Z,13.41
2018-09-13T00:32:16.218Z,13.45
2018-09-13T00:34:47.851Z,13.41
2018-09-13T00:37:16.861Z,13.43
2018-09-13T00:39:45.941Z,13.42
2018-09-13T00:42:16.663Z,13.43
2018-09-13T00:44:46.537Z,13.44
2018-09-13T00:47:15.559Z,13.43
2018-09-13T00:49:44.639Z,13.42
2018-09-13T00:52:13.620Z,13.38
2018-09-13T00:54:42.664Z,13.35
2018-09-13T00:57:11.695Z,13.31
2018-09-13T00:59:40.751Z,13.29
2018-09-13T01:02:09.512Z,13.29
2018-09-13T01:04:38.488Z,13.28
2018-09-13T01:07:07.394Z,13.26
2018-09-13T01:09:36.232Z,13.24
2018-09-13T01:12:05.024Z,13.22
2018-09-13T01:14:35.447Z,13.23
2018-09-13T01:17:04.310Z,13.25
2018-09-13T01:19:33.270Z,13.28
2018-09-13T01:22:02.116Z,13.28
2018-09-13T01:24:31.072Z,13.30
2018-09-13T01:26:59.965Z,13.32
2018-09-13T01:29:28.801Z,13.34
2018-09-13T01:31:57.712Z,13.36
2018-09-13T01:34:26.629Z,13.35
2018-09-13T01:36:55.489Z,13.33
2018-09-13T01:39:24.316Z,13.29
2018-09-13T01:41:53.199Z,13.28
2018-09-13T01:44:22.360Z,13.27
2018-09-13T01:46:51.263Z,13.25
2018-09-13T01:49:20.176Z,13.25
2018-09-13T01:51:49.164Z,13.27
2018-09-13T01:54:18.117Z,13.27
2018-09-13T01:56:46.887Z,13.29
2018-09-13T01:59:15.824Z,13.31
2018-09-13T02:01:44.687Z,13.33
2018-09-13T02:04:13.653Z,13.34
2018-09-13T02:06:42.461Z,13.36
2018-09-13T02:09:11.960Z,13.34
2018-09-13T02:11:40.866Z,13.36
2018-09-13T02:14:09.857Z,13.35
2018-09-13T02:16:38.920Z,13.35
2018-09-13T02:19:07.947Z,13.36
2018-09-13T02:21:36.860Z,13.36
2018-09-13T02:24:05.813Z,13.36
2018-09-13T02:26:34.636Z,13.34
2018-09-13T02:29:03.629Z,13.34
2018-09-13T02:31:32.411Z,13.36
2018-09-13T02:34:01.347Z,13.36
2018-09-13T02:36:30.171Z,13.35
2018-09-13T02:38:59.540Z,13.32
2018-09-13T02:41:28.481Z,13.31
2018-09-13T02:43:57.384Z,13.30
2018-09-13T02:46:26.240Z,13.28
2018-09-13T02:48:55.152Z,13.27
2018-09-13T02:51:23.992Z,13.27
2018-09-13T02:53:52.892Z,13.27
2018-09-13T02:56:21.855Z,13.25
2018-09-13T02:58:50.793Z,13.26
2018-09-13T03:01:19.664Z,13.26
2018-09-13T03:03:48.424Z,13.25
2018-09-13T03:06:17.331Z,13.24
2018-09-13T03:08:46.270Z,13.24
2018-09-13T03:11:15.085Z,13.22
2018-09-13T03:13:43.832Z,13.19
2018-09-13T03:16:12.668Z,13.18
2018-09-13T03:18:41.505Z,13.16
2018-09-13T03:21:10.434Z,13.17
2018-09-13T03:23:39.460Z,13.18
2018-09-13T03:26:08.426Z,13.18
2018-09-13T03:28:37.356Z,13.19
2018-09-13T03:31:06.220Z,13.20
2018-09-13T03:33:35.193Z,13.19
2018-09-13T03:36:04.119Z,13.21
2018-09-13T03:38:32.900Z,13.21
2018-09-13T03:41:01.739Z,13.22
2018-09-13T03:43:30.566Z,13.22
2018-09-13T03:45:59.404Z,13.20
2018-09-13T03:48:28.181Z,13.19
2018-09-13T03:50:59.660Z,13.19
2018-09-13T03:53:28.548Z,13.20
2018-09-13T03:55:57.350Z,13.19
2018-09-13T03:58:26.164Z,13.21
2018-09-13T04:00:55.084Z,13.21
2018-09-13T04:03:24.205Z,13.22
2018-09-13T04:05:53.142Z,13.21
2018-09-13T04:08:22.112Z,13.18
2018-09-13T04:10:50.994Z,13.22
2018-09-13T04:13:19.971Z,13.23
2018-09-13T04:15:48.979Z,13.25
2018-09-13T04:18:17.860Z,13.26
2018-09-13T04:20:46.912Z,13.28
2018-09-13T04:23:16.013Z,13.27
2018-09-13T04:25:44.999Z,13.23
2018-09-13T04:28:13.999Z,13.22
2018-09-13T04:30:42.829Z,13.24
2018-09-13T04:33:11.652Z,13.25
2018-09-13T04:35:40.498Z,13.21
2018-09-13T04:38:09.481Z,13.19
2018-09-13T04:40:38.529Z,13.22
2018-09-13T04:43:07.364Z,13.23
2018-09-13T04:45:36.357Z,13.27
2018-09-13T04:48:05.402Z,13.28
2018-09-13T04:50:34.343Z,13.29
2018-09-13T04:53:03.184Z,13.29
2018-09-13T04:55:32.107Z,13.30
2018-09-13T04:58:01.024Z,13.24
2018-09-13T05:00:29.959Z,13.18
2018-09-13T05:02:58.873Z,13.17
2018-09-13T05:05:27.832Z,13.18
2018-09-13T05:07:56.782Z,13.18
2018-09-13T05:10:25.766Z,13.16
2018-09-13T05:12:54.773Z,13.18
2018-09-13T05:15:23.607Z,13.21
2018-09-13T05:17:52.453Z,13.21
2018-09-13T05:20:21.380Z,13.26
2018-09-13T05:22:50.276Z,13.25
2018-09-13T05:25:19.186Z,13.27
2018-09-13T05:27:48.171Z,13.25
2018-09-13T05:30:17.065Z,13.25
2018-09-13T05:32:46.211Z,13.28
2018-09-13T05:35:15.149Z,13.30
2018-09-13T05:37:44.156Z,13.31
2018-09-13T05:40:13.046Z,13.32
2018-09-13T05:42:41.964Z,13.31
2018-09-13T05:45:10.798Z,13.35
2018-09-13T05:47:39.797Z,13.32
2018-09-13T05:50:08.831Z,13.34
2018-09-13T05:52:37.844Z,13.32
2018-09-13T05:55:06.759Z,13.35
2018-09-13T05:57:35.727Z,13.40
2018-09-13T06:00:05.283Z,13.47
2018-09-13T06:02:34.283Z,13.54
2018-09-13T06:05:03.232Z,13.57
2018-09-13T06:07:32.281Z,13.61
2018-09-13T06:10:01.295Z,13.66
2018-09-13T06:12:30.250Z,13.75
2018-09-13T06:14:59.265Z,13.85
2018-09-13T06:17:28.266Z,13.89
2018-09-13T06:19:57.492Z,13.90
2018-09-13T06:22:26.411Z,13.91
2018-09-13T06:24:55.432Z,13.92
2018-09-13T06:27:24.694Z,13.98
2018-09-13T06:29:53.705Z,14.05
2018-09-13T06:32:23.889Z,14.20
2018-09-13T06:34:52.755Z,14.33
2018-09-13T06:37:21.692Z,14.40
2018-09-13T06:39:50.581Z,14.47
2018-09-13T06:42:22.151Z,14.55
2018-09-13T06:44:51.131Z,14.69
2018-09-13T06:47:20.085Z,14.88
2018-09-13T06:49:48.988Z,15.00
2018-09-13T06:52:19.016Z,15.10
2018-09-13T06:54:47.969Z,15.21
2018-09-13T06:57:17.027Z,15.31
2018-09-13T06:59:46.132Z,15.43
2018-09-13T07:02:16.250Z,15.50
2018-09-13T07:04:45.193Z,15.59
2018-09-13T07:07:14.278Z,15.71
2018-09-13T07:09:43.241Z,15.82
2018-09-13T07:12:12.318Z,15.92
2018-09-13T07:14:41.264Z,15.99
2018-09-13T07:17:10.151Z,16.02
2018-09-13T07:19:39.062Z,16.07
2018-09-13T07:22:08.095Z,16.18
2018-09-13T07:24:37.004Z,16.28
2018-09-13T07:27:06.629Z,16.43
2018-09-13T07:29:35.618Z,16.57
2018-09-13T07:32:10.332Z,16.74
2018-09-13T07:34:40.290Z,16.94
2018-09-13T07:37:11.312Z,17.11
2018-09-13T07:39:40.586Z,17.23
2018-09-13T07:42:27.434Z,17.21
2018-09-13T07:44:56.450Z,17.23
2018-09-13T07:47:25.895Z,17.28
2018-09-13T07:49:55.608Z,17.39
2018-09-13T07:52:40.556Z,17.42
2018-09-13T07:55:09.950Z,17.44
2018-09-13T07:57:39.475Z,17.53
2018-09-13T08:00:09.240Z,17.59
2018-09-13T08:02:38.267Z,17.67
2018-09-13T08:05:07.343Z,17.68
2018-09-13T08:07:36.330Z,17.70
2018-09-13T08:10:05.311Z,17.70
2018-09-13T08:12:52.750Z,17.73
2018-09-13T08:15:21.758Z,17.84
2018-09-13T08:17:50.779Z,17.94
2018-09-13T08:20:19.941Z,17.92
2018-09-13T08:22:49.211Z,17.95
2018-09-13T08:25:18.088Z,17.93
2018-09-13T08:27:47.142Z,18.13
2018-09-13T08:30:16.100Z,18.25
2018-09-13T08:32:45.264Z,18.40
2018-09-13T08:35:14.249Z,18.48
2018-09-13T08:37:43.369Z,18.54
2018-09-13T08:40:12.720Z,18.61
2018-09-13T08:42:42.832Z,18.62
2018-09-13T08:45:12.626Z,18.73
2018-09-13T08:47:42.448Z,18.83
2018-09-13T08:50:11.845Z,18.88
2018-09-13T08:52:40.882Z,19.01
2018-09-13T08:55:10.478Z,19.06
2018-09-13T08:57:40.106Z,19.01
2018-09-13T09:00:11.443Z,18.94
2018-09-13T09:02:41.751Z,18.88
2018-09-13T09:05:10.776Z,18.91
2018-09-13T09:07:40.587Z,19.13
2018-09-13T09:10:09.605Z,19.27
2018-09-13T09:12:39.777Z,19.45
2018-09-13T09:15:08.920Z,19.63
2018-09-13T09:17:37.846Z,19.92
2018-09-13T09:20:07.220Z,20.20
2018-09-13T09:22:39.515Z,20.37
2018-09-13T09:25:08.677Z,20.63
2018-09-13T09:27:37.869Z,20.99
2018-09-13T09:30:06.866Z,21.11
2018-09-13T09:32:36.231Z,21.08
2018-09-13T09:35:05.594Z,20.86
2018-09-13T09:37:34.609Z,20.74
2018-09-13T09:40:03.478Z,20.78
2018-09-13T09:43:13.508Z,20.96
2018-09-13T09:45:42.573Z,21.17
2018-09-13T09:48:12.005Z,21.42
2018-09-13T09:50:40.863Z,21.54
2018-09-13T09:53:17.436Z,21.43
2018-09-13T09:55:46.872Z,21.48
2018-09-13T09:58:16.012Z,21.57
2018-09-13T10:00:50.169Z,21.64
2018-09-13T10:03:27.503Z,21.66
2018-09-13T10:05:57.037Z,21.67
2018-09-13T10:08:26.668Z,21.60
2018-09-13T10:10:56.161Z,21.51
2018-09-13T10:13:28.396Z,21.39
2018-09-13T10:16:02.691Z,21.35
2018-09-13T10:18:37.246Z,21.24
2018-09-13T10:21:11.718Z,21.51
2018-09-13T10:23:46.111Z,21.84
2018-09-13T10:26:20.213Z,22.04
2018-09-13T10:28:54.256Z,22.21
2018-09-13T10:31:28.362Z,22.43
2018-09-13T10:34:10.074Z,22.53
2018-09-13T10:36:45.234Z,22.28
2018-09-13T10:39:20.314Z,21.86
2018-09-13T10:42:13.749Z,21.74
2018-09-13T10:44:47.845Z,21.70
2018-09-13T10:47:22.259Z,21.80
2018-09-13T10:49:56.388Z,21.71
2018-09-13T10:52:27.801Z,21.61
2018-09-13T10:55:04.195Z,21.63
2018-09-13T10:57:38.335Z,21.87
2018-09-13T11:00:08.635Z,22.09
2018-09-13T11:02:38.081Z,22.52
2018-09-13T11:05:14.661Z,22.65
2018-09-13T11:07:44.893Z,22.53
2018-09-13T11:10:19.881Z,22.22
2018-09-13T11:12:58.431Z,21.88
2018-09-13T11:15:38.004Z,21.51
2018-09-13T11:18:13.579Z,21.37
2018-09-13T11:20:44.036Z,21.32
2018-09-13T11:23:44.308Z,21.38
2018-09-13T11:26:15.219Z,21.46
2018-09-13T11:28:44.276Z,21.73
2018-09-13T11:31:13.690Z,22.00
2018-09-13T11:33:48.470Z,22.21
2018-09-13T11:39:00.275Z,23.23
2018-09-13T11:41:29.367Z,23.82
2018-09-13T11:44:10.306Z,24.33
2018-09-13T11:46:39.385Z,24.60
2018-09-13T11:49:54.022Z,24.45
2018-09-13T11:52:23.841Z,23.82
2018-09-13T11:54:57.453Z,23.24
2018-09-13T11:57:26.565Z,22.72
2018-09-13T11:59:56.574Z,22.33
2018-09-13T12:02:25.711Z,22.04
2018-09-13T12:05:05.607Z,21.92
2018-09-13T12:07:35.030Z,21.82
2018-09-13T12:10:15.281Z,21.83
2018-09-13T12:12:47.160Z,21.87
2018-09-13T12:15:19.345Z,21.90
2018-09-13T12:17:50.681Z,21.78
2018-09-13T12:20:24.011Z,21.49
2018-09-13T12:23:03.089Z,21.20
2018-09-13T12:25:38.095Z,21.34
2018-09-13T12:28:13.841Z,21.95
2018-09-13T12:30:48.989Z,22.62
2018-09-13T12:33:19.000Z,23.38
2018-09-13T12:35:49.165Z,23.63
2018-09-13T12:38:21.006Z,23.57
2018-09-13T12:40:50.592Z,23.11
2018-09-13T12:43:20.817Z,22.44
2018-09-13T12:45:53.016Z,22.03
2018-09-13T12:48:22.395Z,22.14
2018-09-13T12:50:51.947Z,22.24
2018-09-13T12:53:21.651Z,22.42
2018-09-13T12:55:58.105Z,22.77
2018-09-13T12:58:28.008Z,23.40
2018-09-13T13:00:58.244Z,24.23
2018-09-13T13:03:27.645Z,25.06
2018-09-13T13:05:57.646Z,25.88
2018-09-13T13:08:29.816Z,26.32
2018-09-13T13:10:58.744Z,25.99
2018-09-13T13:13:27.851Z,24.79
2018-09-13T13:16:04.574Z,23.75
2018-09-13T13:18:33.746Z,22.84
2018-09-13T13:21:03.024Z,22.23
2018-09-13T13:23:33.636Z,21.78
2018-09-13T13:26:03.931Z,21.58
2018-09-13T13:28:46.005Z,21.59
2018-09-13T13:37:13.262Z,22.60
2018-09-13T13:39:42.252Z,23.68
2018-09-13T13:42:18.987Z,24.55
2018-09-13T13:44:58.761Z,25.25
2018-09-13T13:47:36.848Z,27.24
2018-09-13T13:53:27.275Z,28.38
2018-09-13T13:58:52.323Z,33.98
2018-09-13T14:01:21.340Z,35.66
2018-09-13T14:03:52.660Z,36.72
2018-09-13T14:06:26.180Z,36.48
2018-09-13T14:08:56.173Z,34.91
2018-09-13T14:11:26.069Z,33.00
2018-09-13T14:13:55.342Z,30.38
2018-09-13T14:19:27.910Z,26.19
2018-09-13T14:21:57.539Z,25.04
2018-09-13T14:24:30.465Z,23.84
2018-09-13T14:27:05.708Z,23.07
2018-09-13T14:29:36.069Z,22.67
2018-09-13T14:32:09.057Z,22.44
2018-09-13T14:34:42.420Z,22.27
2018-09-13T14:37:12.749Z,22.14
2018-09-13T14:39:43.830Z,21.97
2018-09-13T14:42:14.854Z,21.83
2018-09-13T14:44:46.149Z,21.85
2018-09-13T14:47:20.098Z,21.90
2018-09-13T14:49:50.269Z,22.48
2018-09-13T14:52:19.588Z,25.27
2018-09-13T14:54:56.237Z,28.26
2018-09-13T14:57:30.319Z,28.25
2018-09-13T15:02:47.719Z,25.53
2018-09-13T15:05:19.171Z,24.61
2018-09-13T15:07:53.413Z,23.94
2018-09-13T15:10:38.249Z,23.33
2018-09-13T15:13:15.213Z,22.92
2018-09-13T15:15:50.980Z,22.65
2018-09-13T15:18:20.259Z,22.44
2018-09-13T15:20:56.545Z,22.10
2018-09-13T15:23:34.758Z,21.92
2018-09-13T15:26:15.750Z,21.76
2018-09-13T15:28:45.172Z,21.58
2018-09-13T15:31:15.818Z,21.53
2018-09-13T15:33:45.220Z,21.44
2018-09-13T15:36:15.684Z,21.42
2018-09-13T15:38:45.701Z,21.51
2018-09-13T15:41:15.837Z,21.65
2018-09-13T15:43:45.021Z,21.71
2018-09-13T15:46:18.435Z,21.60
2018-09-13T15:48:47.888Z,21.77
2018-09-13T15:51:18.361Z,22.03
2018-09-13T15:53:48.564Z,22.32
2018-09-13T15:56:19.930Z,22.99
2018-09-13T15:58:49.192Z,23.79
2018-09-13T16:01:18.509Z,24.38
2018-09-13T16:03:47.384Z,24.70
2018-09-13T16:06:16.375Z,25.21
2018-09-13T16:08:45.470Z,25.40
2018-09-13T16:11:15.126Z,26.12
2018-09-13T16:13:44.023Z,26.73
2018-09-13T16:16:26.629Z,25.95
2018-09-13T16:18:56.576Z,24.70
2018-09-13T16:21:28.068Z,23.66
2018-09-13T16:23:57.518Z,22.70
2018-09-13T16:26:26.579Z,21.84
2018-09-13T16:28:56.485Z,21.09
2018-09-13T16:31:25.809Z,20.52
2018-09-13T16:33:55.888Z,20.01
2018-09-13T16:36:27.724Z,19.64
2018-09-13T16:39:02.259Z,19.88
2018-09-13T16:41:45.758Z,20.41
2018-09-13T16:44:24.388Z,20.83
2018-09-13T16:47:00.764Z,21.06
2018-09-13T16:49:30.345Z,21.31
2018-09-13T16:52:00.671Z,21.26
2018-09-13T16:54:29.687Z,20.96
2018-09-13T16:57:06.787Z,20.54
2018-09-13T16:59:35.734Z,20.13
2018-09-13T17:02:05.021Z,19.79
2018-09-13T17:04:34.538Z,19.60
2018-09-13T17:07:06.442Z,19.52
2018-09-13T17:09:35.812Z,19.47
2018-09-13T17:12:05.665Z,19.32
2018-09-13T17:14:35.005Z,19.12
2018-09-13T17:17:11.828Z,18.90
2018-09-13T17:20:09.509Z,18.71
2018-09-13T17:22:39.085Z,18.49
2018-09-13T17:25:08.203Z,18.27
2018-09-13T17:27:45.385Z,18.02
2018-09-13T17:30:14.387Z,17.77
2018-09-13T17:32:43.262Z,17.59
2018-09-13T17:35:12.213Z,17.39
2018-09-13T17:37:44.556Z,17.26
2018-09-13T17:40:13.456Z,17.09
2018-09-13T17:42:42.698Z,16.90
2018-09-13T17:45:11.740Z,16.71
2018-09-13T17:47:40.691Z,16.51
2018-09-13T17:50:09.777Z,16.36
2018-09-13T17:52:38.718Z,16.18
2018-09-13T17:55:07.886Z,15.98
2018-09-13T17:57:36.767Z,15.75
2018-09-13T18:00:06.704Z,15.57
2018-09-13T18:02:35.735Z,15.37
2018-09-13T18:05:04.683Z,15.22
2018-09-13T18:07:33.675Z,15.06
2018-09-13T18:10:02.624Z,14.92
2018-09-13T18:12:31.507Z,14.77
2018-09-13T18:15:00.570Z,14.59
2018-09-13T18:17:29.513Z,14.44
2018-09-13T18:19:58.456Z,14.27
2018-09-13T18:22:27.454Z,14.10
2018-09-13T18:24:56.487Z,13.92
2018-09-13T18:27:25.329Z,13.76
2018-09-13T18:29:54.325Z,13.62
2018-09-13T18:32:23.247Z,13.47
2018-09-13T18:34:52.284Z,13.34
2018-09-13T18:37:21.356Z,13.22
2018-09-13T18:39:50.366Z,13.15
2018-09-13T18:42:19.276Z,13.11
2018-09-13T18:44:48.152Z,13.04
2018-09-13T18:47:17.180Z,12.99
2018-09-13T18:49:46.048Z,12.96
2018-09-13T18:52:15.023Z,13.02
2018-09-13T18:54:44.061Z,13.06
2018-09-13T18:57:13.276Z,13.06
2018-09-13T18:59:42.327Z,12.98
2018-09-13T19:02:11.181Z,12.83
2018-09-13T19:04:40.177Z,12.66
2018-09-13T19:07:09.123Z,12.53
2018-09-13T19:09:38.008Z,12.41
2018-09-13T19:12:06.947Z,12.37
2018-09-13T19:14:36.015Z,12.41
2018-09-13T19:17:05.059Z,12.36
2018-09-13T19:19:33.936Z,12.26
2018-09-13T19:22:02.931Z,12.15
2018-09-13T19:24:31.889Z,12.01
2018-09-13T19:27:00.921Z,11.90
2018-09-13T19:29:29.866Z,11.79
2018-09-13T19:31:58.848Z,11.70
2018-09-13T19:34:27.784Z,11.60
2018-09-13T19:36:56.794Z,11.52
2018-09-13T19:39:25.625Z,11.50
2018-09-13T19:41:54.594Z,11.51
2018-09-13T19:44:23.565Z,11.51
2018-09-13T19:46:52.702Z,11.44
2018-09-13T19:49:21.606Z,11.37
2018-09-13T19:51:50.624Z,11.31
2018-09-13T19:54:19.621Z,11.25
2018-09-13T19:56:48.572Z,11.22
2018-09-13T19:59:17.472Z,11.22
2018-09-13T20:01:46.385Z,11.27
2018-09-13T20:04:15.273Z,11.31
2018-09-13T20:06:44.182Z,11.36
2018-09-13T20:09:13.294Z,11.36
2018-09-13T20:11:42.364Z,11.38
2018-09-13T20:14:11.351Z,11.35
2018-09-13T20:16:40.351Z,11.32
2018-09-13T20:19:09.334Z,11.29
2018-09-13T20:21:38.243Z,11.32
2018-09-13T20:24:07.187Z,11.36
2018-09-13T20:26:36.155Z,11.42
2018-09-13T20:29:04.978Z,11.53
2018-09-13T20:31:33.841Z,11.65
2018-09-13T20:34:02.663Z,11.71
2018-09-13T20:36:31.563Z,11.71
2018-09-13T20:39:00.484Z,11.70
2018-09-13T20:41:29.547Z,11.67
2018-09-13T20:43:58.424Z,11.54
2018-09-13T20:46:27.361Z,11.36
2018-09-13T20:48:56.335Z,11.16
2018-09-13T20:51:25.145Z,11.02
2018-09-13T20:53:54.007Z,10.91
2018-09-13T20:56:23.000Z,10.82
2018-09-13T20:58:52.012Z,10.71
2018-09-13T21:01:21.064Z,10.60
2018-09-13T21:03:49.896Z,10.54
2018-09-13T21:06:18.887Z,10.48
2018-09-13T21:08:51.041Z,10.40
2018-09-13T21:11:19.990Z,10.37
2018-09-13T21:13:48.832Z,10.28
2018-09-13T21:16:17.745Z,10.19
2018-09-13T21:18:46.670Z,10.14
2018-09-13T21:21:15.705Z,10.11
2018-09-13T21:23:44.638Z,10.03
2018-09-13T21:26:14.006Z,9.97
2018-09-13T21:28:42.946Z,9.93
2018-09-13T21:31:11.954Z,9.90
2018-09-13T21:33:40.849Z,10.30
2018-09-13T21:36:09.809Z,10.67
2018-09-13T21:38:38.772Z,10.94
2018-09-13T21:41:07.664Z,11.26
2018-09-13T21:43:36.485Z,11.50
2018-09-13T21:46:05.522Z,11.68
2018-09-13T21:48:34.337Z,11.81
2018-09-13T21:51:03.204Z,11.86
2018-09-13T21:53:32.117Z,11.84
2018-09-13T21:56:00.987Z,11.59
2018-09-13T21:58:29.907Z,11.38
2018-09-13T22:00:58.970Z,11.30
2018-09-13T22:03:27.793Z,11.36
2018-09-13T22:05:56.736Z,11.39
2018-09-13T22:08:25.692Z,11.47
2018-09-13T22:10:54.522Z,11.53
2018-09-13T22:13:23.504Z,11.50
2018-09-13T22:15:52.392Z,11.52
2018-09-13T22:18:21.369Z,11.59
2018-09-13T22:20:50.171Z,11.57
2018-09-13T22:23:18.985Z,11.49
2018-09-13T22:25:47.927Z,11.58
2018-09-13T22:28:16.745Z,11.53
2018-09-13T22:30:45.592Z,11.54
2018-09-13T22:33:14.462Z,11.56
2018-09-13T22:35:43.381Z,11.59
2018-09-13T22:38:12.432Z,11.54
2018-09-13T22:40:41.412Z,11.45
2018-09-13T22:43:10.397Z,11.36
2018-09-13T22:45:39.282Z,11.32
2018-09-13T22:48:08.272Z,11.27
2018-09-13T22:50:37.220Z,11.18
2018-09-13T22:53:06.260Z,11.11
2018-09-13T22:55:35.229Z,11.03
2018-09-13T22:58:04.157Z,11.09
2018-09-13T23:00:32.927Z,11.13
2018-09-13T23:03:01.762Z,11.07
2018-09-13T23:05:30.724Z,11.01
2018-09-13T23:07:59.653Z,10.92
2018-09-13T23:10:28.607Z,10.88
2018-09-13T23:12:57.529Z,10.81
2018-09-13T23:15:26.350Z,10.70
2018-09-13T23:17:55.294Z,10.70
2018-09-13T23:20:24.228Z,10.61
2018-09-13T23:22:53.137Z,10.52
2018-09-13T23:25:22.032Z,10.55
2018-09-13T23:27:50.963Z,10.62
2018-09-13T23:30:19.887Z,10.73
2018-09-13T23:32:48.844Z,10.81
2018-09-13T23:35:17.757Z,10.89
2018-09-13T23:37:46.757Z,10.88
2018-09-13T23:40:15.850Z,10.80
2018-09-13T23:42:44.604Z,10.73
2018-09-13T23:45:13.589Z,10.63
2018-09-13T23:47:42.637Z,10.51
2018-09-13T23:50:11.525Z,10.38
2018-09-13T23:52:40.441Z,10.25
2018-09-13T23:55:09.291Z,10.19
2018-09-13T23:57:38.265Z,10.08
